createdAt,value
2022-12-22T00:02:36.381Z,89.98
2022-12-22T00:05:30.859Z,90.40
2022-12-22T00:08:16.008Z,90.14
2022-12-22T00:11:02.560Z,89.97
2022-12-22T00:13:48.446Z,90.02
2022-12-22T00:16:34.211Z,89.78
2022-12-22T00:19:20.036Z,89.53
2022-12-22T00:22:05.260Z,89.57
2022-12-22T00:24:51.119Z,89.99
2022-12-22T00:27:45.853Z,90.61
2022-12-22T00:30:33.019Z,90.47
2022-12-22T00:33:19.342Z,90.90
2022-12-22T00:36:04.595Z,91.53
2022-12-22T00:38:49.883Z,91.74
2022-12-22T00:41:35.211Z,92.29
2022-12-22T00:44:21.762Z,93.34
2022-12-22T00:47:07.620Z,93.98
2022-12-22T00:49:54.708Z,94.24
2022-12-22T00:52:42.118Z,94.39
2022-12-22T00:55:32.482Z,94.45
2022-12-22T00:58:18.876Z,94.32
2022-12-22T01:01:05.446Z,94.72
2022-12-22T01:03:51.087Z,94.87
2022-12-22T01:06:36.743Z,94.77
2022-12-22T01:09:23.577Z,94.52
2022-12-22T01:12:09.383Z,94.88
2022-12-22T01:14:54.627Z,94.48
2022-12-22T01:17:41.322Z,95.16
2022-12-22T01:20:27.732Z,95.04
2022-12-22T01:23:13.155Z,95.17
2022-12-22T01:25:58.395Z,94.50
2022-12-22T01:28:43.800Z,94.47
2022-12-22T01:31:36.543Z,94.49
2022-12-22T01:34:23.553Z,94.34
2022-12-22T01:37:08.895Z,94.92
2022-12-22T01:39:54.056Z,95.39
2022-12-22T01:42:39.411Z,95.16
2022-12-22T01:45:39.436Z,94.95
2022-12-22T01:48:29.053Z,95.17
2022-12-22T01:51:17.218Z,95.54
2022-12-22T01:54:03.182Z,95.76
2022-12-22T01:56:48.578Z,96.26
2022-12-22T01:59:34.398Z,95.81
2022-12-22T02:02:24.268Z,95.81
2022-12-22T02:05:10.997Z,96.01
2022-12-22T02:08:12.774Z,95.92
2022-12-22T02:11:13.441Z,95.92
2022-12-22T02:14:12.116Z,95.37
2022-12-22T02:17:03.802Z,95.64
2022-12-22T02:20:08.922Z,95.56
2022-12-22T02:23:05.458Z,95.57
2022-12-22T02:25:59.819Z,95.95
2022-12-22T02:28:46.952Z,95.36
2022-12-22T02:31:32.523Z,95.97
2022-12-22T02:34:18.089Z,96.37
2022-12-22T02:37:11.855Z,96.80
2022-12-22T02:40:11.443Z,95.96
2022-12-22T02:43:07.348Z,95.99
2022-12-22T02:46:01.856Z,96.96
2022-12-22T02:48:56.240Z,96.83
2022-12-22T02:51:47.223Z,96.80
2022-12-22T02:54:35.024Z,96.68
2022-12-22T02:57:21.975Z,96.60
2022-12-22T03:00:07.382Z,95.84
2022-12-22T03:02:54.519Z,96.10
2022-12-22T03:05:40.121Z,96.17
2022-12-22T03:08:25.365Z,95.49
2022-12-22T03:11:10.575Z,95.88
2022-12-22T03:13:55.867Z,96.17
2022-12-22T03:16:41.719Z,95.40
2022-12-22T03:19:28.803Z,96.13
2022-12-22T03:22:14.154Z,95.95
2022-12-22T03:24:59.724Z,95.69
2022-12-22T03:27:27.655Z,96.23
2022-12-22T03:29:55.474Z,96.16
2022-12-22T03:32:23.323Z,95.96
2022-12-22T03:34:52.488Z,95.39
2022-12-22T03:37:20.355Z,95.08
2022-12-22T03:39:48.216Z,95.41
2022-12-22T03:42:33.379Z,95.17
2022-12-22T03:45:18.965Z,96.01
2022-12-22T03:47:46.908Z,95.34
2022-12-22T03:50:16.097Z,95.09
2022-12-22T03:52:43.948Z,95.03
2022-12-22T03:55:11.896Z,95.01
2022-12-22T03:57:39.761Z,94.71
2022-12-22T04:00:08.901Z,94.36
2022-12-22T04:02:36.711Z,94.54
2022-12-22T04:05:05.336Z,95.08
2022-12-22T04:07:34.457Z,94.42
2022-12-22T04:10:31.075Z,95.00
2022-12-22T04:12:58.919Z,94.37
2022-12-22T04:15:28.480Z,94.43
2022-12-22T04:17:57.670Z,94.35
2022-12-22T04:20:27.803Z,94.51
2022-12-22T04:22:57.592Z,94.52
2022-12-22T04:25:26.276Z,94.01
2022-12-22T04:27:54.151Z,94.27
2022-12-22T04:30:22.050Z,93.61
2022-12-22T04:32:49.948Z,93.52
2022-12-22T04:35:17.958Z,93.42
2022-12-22T04:37:45.876Z,93.15
2022-12-22T04:40:16.504Z,93.35
2022-12-22T04:42:44.279Z,93.25
2022-12-22T04:45:12.387Z,93.00
2022-12-22T04:47:45.261Z,93.18
2022-12-22T04:50:13.202Z,92.89
2022-12-22T04:52:41.035Z,92.79
2022-12-22T04:55:09.811Z,92.64
2022-12-22T04:57:41.072Z,92.18
2022-12-22T05:00:10.312Z,92.37
2022-12-22T05:02:38.389Z,92.23
2022-12-22T05:05:07.495Z,92.71
2022-12-22T05:07:35.449Z,92.78
2022-12-22T05:10:03.824Z,92.63
2022-12-22T05:12:49.303Z,93.72
2022-12-22T05:15:18.695Z,93.19
2022-12-22T05:17:46.611Z,93.20
2022-12-22T05:20:14.512Z,93.42
2022-12-22T05:22:42.365Z,93.38
2022-12-22T05:25:10.963Z,93.62
2022-12-22T05:27:39.180Z,93.03
2022-12-22T05:30:08.249Z,93.39
2022-12-22T05:32:37.573Z,94.08
2022-12-22T05:35:05.837Z,93.67
2022-12-22T05:37:34.570Z,93.19
2022-12-22T05:40:02.724Z,93.37
2022-12-22T05:42:39.657Z,93.10
2022-12-22T05:45:12.288Z,93.66
2022-12-22T05:47:46.016Z,94.22
2022-12-22T05:50:15.456Z,94.11
2022-12-22T05:52:43.803Z,94.62
2022-12-22T05:55:12.267Z,94.18
2022-12-22T05:57:40.226Z,94.10
2022-12-22T06:00:10.498Z,94.44
2022-12-22T06:02:38.379Z,93.59
2022-12-22T06:05:09.324Z,93.76
2022-12-22T06:07:37.379Z,93.56
2022-12-22T06:10:11.671Z,93.39
2022-12-22T06:12:40.210Z,93.38
2022-12-22T06:15:09.548Z,93.66
2022-12-22T06:17:43.937Z,93.37
2022-12-22T06:20:15.365Z,94.13
2022-12-22T06:22:43.523Z,94.59
2022-12-22T06:25:17.645Z,94.58
2022-12-22T06:27:46.284Z,94.31
2022-12-22T06:30:15.600Z,93.72
2022-12-22T06:32:43.841Z,93.55
2022-12-22T06:35:12.270Z,93.33
2022-12-22T06:37:41.469Z,93.77
2022-12-22T06:40:10.963Z,93.68
2022-12-22T06:42:58.557Z,93.26
2022-12-22T06:45:30.170Z,93.73
2022-12-22T06:47:57.973Z,93.19
2022-12-22T06:50:25.808Z,93.01
2022-12-22T06:52:54.907Z,92.54
2022-12-22T06:55:22.911Z,92.42
2022-12-22T06:57:50.742Z,92.35
2022-12-22T07:00:19.042Z,92.64
2022-12-22T07:02:47.115Z,92.27
2022-12-22T07:05:16.400Z,92.22
2022-12-22T07:07:44.124Z,92.08
2022-12-22T07:10:13.783Z,91.19
2022-12-22T07:12:41.648Z,90.84
2022-12-22T07:15:10.711Z,90.86
2022-12-22T07:17:38.642Z,91.03
2022-12-22T07:20:07.176Z,90.35
2022-12-22T07:22:35.067Z,90.80
2022-12-22T07:25:03.099Z,90.49
2022-12-22T07:27:32.513Z,90.63
2022-12-22T07:30:00.722Z,91.02
2022-12-22T07:32:28.638Z,90.93
2022-12-22T07:35:03.130Z,92.90
2022-12-22T07:37:33.107Z,93.70
2022-12-22T07:40:01.059Z,93.35
2022-12-22T07:42:46.215Z,93.32
2022-12-22T07:45:16.865Z,93.59
2022-12-22T07:47:46.600Z,93.91
2022-12-22T07:50:27.580Z,94.36
2022-12-22T07:52:56.216Z,93.75
2022-12-22T07:55:24.515Z,93.43
2022-12-22T07:57:52.730Z,94.29
2022-12-22T08:00:23.849Z,94.41
2022-12-22T08:02:52.446Z,95.21
2022-12-22T08:05:21.044Z,95.05
2022-12-22T08:07:50.560Z,94.73
2022-12-22T08:10:19.580Z,94.87
2022-12-22T08:12:48.139Z,94.89
2022-12-22T08:15:16.203Z,96.32
2022-12-22T08:17:45.452Z,95.49
2022-12-22T08:20:13.547Z,95.19
2022-12-22T08:22:41.317Z,95.46
2022-12-22T08:25:10.034Z,95.36
2022-12-22T08:27:42.520Z,95.13
2022-12-22T08:30:11.693Z,94.84
2022-12-22T08:32:41.710Z,94.63
2022-12-22T08:35:11.680Z,95.44
2022-12-22T08:37:43.979Z,94.97
2022-12-22T08:40:16.420Z,94.35
2022-12-22T08:42:44.969Z,94.58
2022-12-22T08:45:13.176Z,94.03
2022-12-22T08:47:44.207Z,93.60
2022-12-22T08:50:14.906Z,93.81
2022-12-22T08:52:42.881Z,93.46
2022-12-22T08:55:11.918Z,93.66
2022-12-22T08:57:39.857Z,93.24
2022-12-22T09:00:09.634Z,92.95
2022-12-22T09:02:38.529Z,93.36
2022-12-22T09:05:07.004Z,93.03
2022-12-22T09:07:36.310Z,92.27
2022-12-22T09:10:04.479Z,92.74
2022-12-22T09:12:32.190Z,92.82
2022-12-22T09:15:00.396Z,92.91
2022-12-22T09:17:28.302Z,92.92
2022-12-22T09:19:56.292Z,92.78
2022-12-22T09:22:28.582Z,93.01
2022-12-22T09:24:58.134Z,92.90
2022-12-22T09:27:26.022Z,92.90
2022-12-22T09:29:53.946Z,92.81
2022-12-22T09:32:21.844Z,93.00
2022-12-22T09:34:49.853Z,93.56
2022-12-22T09:37:17.984Z,93.86
2022-12-22T09:39:47.032Z,94.04
2022-12-22T09:42:20.174Z,93.62
2022-12-22T09:44:50.741Z,94.57
2022-12-22T09:47:24.940Z,94.87
2022-12-22T09:49:56.319Z,94.27
2022-12-22T09:52:31.763Z,94.82
2022-12-22T09:55:00.091Z,94.84
2022-12-22T09:57:32.723Z,94.90
2022-12-22T10:00:10.507Z,95.17
2022-12-22T10:02:48.694Z,95.45
2022-12-22T10:05:28.180Z,95.75
2022-12-22T10:08:01.492Z,95.02
2022-12-22T10:10:32.114Z,95.50
2022-12-22T10:13:04.292Z,94.62
2022-12-22T10:15:36.838Z,95.45
2022-12-22T10:18:13.229Z,95.74
2022-12-22T10:20:42.239Z,95.87
2022-12-22T10:23:18.419Z,95.07
2022-12-22T10:28:59.436Z,95.44
2022-12-22T10:31:29.018Z,95.45
2022-12-22T10:33:58.950Z,95.13
2022-12-22T10:36:29.281Z,95.42
2022-12-22T10:39:03.531Z,94.70
2022-12-22T10:41:35.715Z,95.53
2022-12-22T10:44:09.898Z,94.81
2022-12-22T10:46:41.324Z,94.60
2022-12-22T10:49:20.068Z,94.99
2022-12-22T10:51:51.101Z,94.84
2022-12-22T10:54:31.630Z,93.85
2022-12-22T10:57:19.666Z,94.01
2022-12-22T10:59:51.834Z,94.10
2022-12-22T11:02:33.316Z,93.38
2022-12-22T11:05:08.105Z,93.12
2022-12-22T11:07:38.292Z,92.96
2022-12-22T11:10:18.374Z,92.57
2022-12-22T11:13:06.041Z,92.31
2022-12-22T11:15:43.931Z,92.68
2022-12-22T11:18:30.208Z,92.56
2022-12-22T11:21:04.415Z,92.44
2022-12-22T11:23:37.490Z,92.01
2022-12-22T11:26:15.498Z,92.55
2022-12-22T11:29:03.080Z,92.01
2022-12-22T11:31:54.661Z,91.79
2022-12-22T11:34:39.385Z,91.15
2022-12-22T11:37:20.709Z,90.93
2022-12-22T11:39:59.289Z,91.77
2022-12-22T11:42:46.644Z,92.09
2022-12-22T11:45:42.682Z,92.97
2022-12-22T11:48:32.761Z,91.82
2022-12-22T11:51:10.105Z,91.62
2022-12-22T11:54:10.364Z,90.86
2022-12-22T11:56:41.711Z,90.67
2022-12-22T11:59:27.275Z,90.84
2022-12-22T12:02:14.841Z,91.01
2022-12-22T12:05:08.128Z,90.87
2022-12-22T12:07:41.804Z,89.84
2022-12-22T12:10:18.922Z,89.86
2022-12-22T12:12:56.523Z,89.56
2022-12-22T12:15:33.432Z,90.40
2022-12-22T12:18:16.662Z,90.59
2022-12-22T12:20:58.355Z,90.59
2022-12-22T12:23:40.727Z,89.72
2022-12-22T12:26:16.437Z,89.08
2022-12-22T12:28:52.923Z,90.03
2022-12-22T12:31:26.821Z,89.83
2022-12-22T12:34:00.198Z,90.14
2022-12-22T12:36:36.691Z,89.82
2022-12-22T12:39:14.866Z,90.12
2022-12-22T12:41:52.299Z,91.09
2022-12-22T12:44:30.919Z,89.82
2022-12-22T12:47:09.087Z,90.35
2022-12-22T12:50:30.603Z,91.06
2022-12-22T12:53:10.757Z,90.90
2022-12-22T12:56:05.783Z,91.09
2022-12-22T12:58:58.162Z,90.27
2022-12-22T13:01:57.967Z,90.54
2022-12-22T13:05:16.412Z,89.35
2022-12-22T13:08:23.873Z,88.94
2022-12-22T13:12:10.619Z,87.72
2022-12-22T13:14:52.377Z,87.61
2022-12-22T13:17:43.511Z,88.66
2022-12-22T13:20:15.746Z,89.65
2022-12-22T13:22:47.849Z,89.82
2022-12-22T13:25:18.087Z,88.93
2022-12-22T13:27:49.406Z,89.43
2022-12-22T13:30:20.274Z,88.64
2022-12-22T13:32:50.666Z,88.98
2022-12-22T13:35:32.597Z,89.00
2022-12-22T13:38:02.538Z,87.78
2022-12-22T13:40:32.261Z,86.80
2022-12-22T13:43:06.256Z,86.26
2022-12-22T13:45:37.147Z,87.11
2022-12-22T13:48:10.885Z,85.78
2022-12-22T13:50:43.283Z,86.48
2022-12-22T13:53:41.489Z,86.48
2022-12-22T13:56:07.313Z,85.84
2022-12-22T13:58:40.304Z,85.63
2022-12-22T14:01:18.059Z,85.63
2022-12-22T14:04:01.519Z,88.14
2022-12-22T14:06:32.590Z,86.99
2022-12-22T14:09:12.647Z,89.17
2022-12-22T14:11:47.095Z,88.84
2022-12-22T14:14:23.814Z,90.68
2022-12-22T14:16:54.626Z,89.97
2022-12-22T14:19:24.632Z,90.24
2022-12-22T14:22:02.350Z,90.13
2022-12-22T14:24:38.259Z,90.09
2022-12-22T14:27:14.195Z,89.92
2022-12-22T14:29:43.479Z,90.49
2022-12-22T14:32:13.866Z,91.87
2022-12-22T14:34:42.507Z,93.19
2022-12-22T14:37:10.701Z,94.47
2022-12-22T14:39:38.559Z,93.96
2022-12-22T14:42:13.066Z,94.23
2022-12-22T14:44:47.194Z,94.28
2022-12-22T14:47:18.383Z,95.23
2022-12-22T14:49:49.582Z,95.02
2022-12-22T14:52:22.344Z,93.88
2022-12-22T14:54:52.875Z,93.35
2022-12-22T14:57:26.244Z,92.16
2022-12-22T15:00:10.213Z,91.27
2022-12-22T15:02:40.659Z,90.03
2022-12-22T15:05:24.486Z,89.62
2022-12-22T15:08:05.512Z,89.72
2022-12-22T15:10:39.774Z,88.81
2022-12-22T15:13:14.475Z,90.20
2022-12-22T15:15:44.049Z,89.25
2022-12-22T15:18:14.766Z,88.74
2022-12-22T15:20:42.638Z,88.32
2022-12-22T15:23:14.964Z,88.55
2022-12-22T15:25:43.018Z,88.57
2022-12-22T15:28:11.179Z,88.25
2022-12-22T15:30:39.474Z,88.57
2022-12-22T15:33:14.220Z,87.40
2022-12-22T15:35:42.680Z,86.84
2022-12-22T15:38:14.123Z,86.91
2022-12-22T15:40:42.409Z,86.21
2022-12-22T15:43:22.722Z,86.50
2022-12-22T15:45:59.692Z,86.67
2022-12-22T15:48:32.852Z,87.13
2022-12-22T15:51:02.201Z,86.56
2022-12-22T15:53:31.438Z,86.42
2022-12-22T15:55:59.658Z,86.57
2022-12-22T15:58:30.880Z,86.51
2022-12-22T16:00:58.815Z,86.96
2022-12-22T16:03:26.878Z,86.52
2022-12-22T16:05:56.359Z,87.10
2022-12-22T16:08:32.388Z,86.90
2022-12-22T16:11:01.409Z,86.46
2022-12-22T16:13:29.814Z,86.45
2022-12-22T16:15:58.761Z,86.32
2022-12-22T16:18:28.085Z,86.06
2022-12-22T16:21:00.656Z,86.59
2022-12-22T16:23:32.358Z,87.80
2022-12-22T16:26:02.442Z,88.74
2022-12-22T16:28:31.055Z,90.17
2022-12-22T16:30:59.079Z,89.42
2022-12-22T16:33:27.227Z,90.18
2022-12-22T16:35:55.097Z,90.05
2022-12-22T16:38:24.366Z,90.69
2022-12-22T16:40:54.260Z,91.10
2022-12-22T16:46:16.894Z,91.23
2022-12-22T16:48:47.460Z,90.95
2022-12-22T16:51:19.539Z,90.54
2022-12-22T16:53:49.199Z,91.04
2022-12-22T16:56:20.181Z,92.17
2022-12-22T16:58:49.041Z,91.71
2022-12-22T17:01:26.545Z,91.28
2022-12-22T17:03:55.437Z,92.07
2022-12-22T17:06:23.379Z,91.68
2022-12-22T17:08:52.769Z,92.00
2022-12-22T17:11:23.516Z,92.15
2022-12-22T17:13:55.289Z,91.33
2022-12-22T17:16:24.163Z,91.50
2022-12-22T17:18:52.145Z,91.23
2022-12-22T17:21:21.819Z,91.39
2022-12-22T17:23:53.161Z,91.65
2022-12-22T17:26:24.204Z,91.73
2022-12-22T17:28:53.220Z,91.87
2022-12-22T17:31:23.325Z,90.30
2022-12-22T17:33:52.028Z,90.58
2022-12-22T17:36:31.401Z,90.46
2022-12-22T17:39:02.202Z,91.15
2022-12-22T17:41:30.959Z,91.03
2022-12-22T17:43:58.976Z,91.30
2022-12-22T17:46:27.012Z,91.14
2022-12-22T17:48:55.333Z,90.96
2022-12-22T17:51:25.800Z,91.02
2022-12-22T17:53:54.913Z,91.53
2022-12-22T17:56:26.148Z,91.19
2022-12-22T17:58:54.510Z,91.02
2022-12-22T18:01:25.337Z,91.47
2022-12-22T18:03:54.028Z,91.60
2022-12-22T18:06:24.885Z,91.32
2022-12-22T18:08:54.235Z,92.22
2022-12-22T18:11:24.441Z,92.58
2022-12-22T18:13:53.590Z,92.61
2022-12-22T18:16:23.163Z,92.89
2022-12-22T18:18:51.236Z,92.59
2022-12-22T18:21:21.409Z,93.40
2022-12-22T18:23:51.061Z,92.88
2022-12-22T18:26:27.272Z,93.13
2022-12-22T18:28:56.280Z,92.74
2022-12-22T18:31:25.363Z,92.97
2022-12-22T18:33:55.399Z,93.32
2022-12-22T18:36:28.615Z,92.45
2022-12-22T18:38:57.180Z,92.97
2022-12-22T18:41:27.832Z,92.40
2022-12-22T18:43:56.268Z,92.51
2022-12-22T18:46:25.064Z,92.22
2022-12-22T18:48:55.194Z,92.50
2022-12-22T18:51:27.401Z,92.56
2022-12-22T18:53:57.117Z,92.58
2022-12-22T18:56:26.407Z,93.33
2022-12-22T18:58:54.525Z,92.38
2022-12-22T19:01:24.872Z,92.94
2022-12-22T19:03:55.999Z,92.75
2022-12-22T19:06:24.805Z,93.50
2022-12-22T19:08:52.830Z,93.24
2022-12-22T19:11:28.739Z,93.19
2022-12-22T19:13:56.678Z,93.24
2022-12-22T19:16:26.955Z,93.32
2022-12-22T19:18:57.136Z,92.68
2022-12-22T19:21:25.226Z,92.73
2022-12-22T19:23:53.183Z,93.31
2022-12-22T19:26:23.716Z,92.96
2022-12-22T19:28:56.844Z,93.43
2022-12-22T19:31:38.772Z,92.83
2022-12-22T19:34:11.875Z,92.81
2022-12-22T19:36:39.759Z,93.53
2022-12-22T19:39:07.778Z,93.71
2022-12-22T19:41:41.409Z,93.52
2022-12-22T19:44:19.181Z,93.53
2022-12-22T19:46:48.076Z,93.89
2022-12-22T19:49:17.888Z,93.99
2022-12-22T19:51:46.092Z,93.29
2022-12-22T19:54:14.118Z,93.20
2022-12-22T19:56:43.454Z,93.55
2022-12-22T19:59:26.925Z,93.23
2022-12-22T20:01:58.374Z,93.70
2022-12-22T20:04:26.640Z,93.72
2022-12-22T20:06:54.678Z,93.90
2022-12-22T20:09:22.479Z,94.83
2022-12-22T20:11:50.629Z,94.43
2022-12-22T20:14:20.367Z,94.80
2022-12-22T20:16:48.277Z,94.12
2022-12-22T20:19:17.136Z,95.09
2022-12-22T20:21:45.331Z,94.56
2022-12-22T20:24:21.735Z,94.40
2022-12-22T20:26:54.151Z,95.13
2022-12-22T20:29:24.943Z,94.77
2022-12-22T20:31:53.214Z,95.37
2022-12-22T20:34:21.173Z,94.74
2022-12-22T20:36:49.017Z,94.59
2022-12-22T20:39:20.368Z,94.54
2022-12-22T20:41:52.927Z,94.47
2022-12-22T20:44:24.054Z,94.26
2022-12-22T20:46:52.018Z,94.51
2022-12-22T20:49:19.875Z,94.52
2022-12-22T20:51:47.777Z,94.32
2022-12-22T20:54:16.393Z,94.67
2022-12-22T20:56:45.316Z,94.98
2022-12-22T20:59:16.304Z,94.98
2022-12-22T21:01:46.338Z,95.05
2022-12-22T21:04:15.306Z,94.59
2022-12-22T21:06:47.391Z,95.92
2022-12-22T21:09:16.182Z,95.72
2022-12-22T21:11:44.733Z,95.76
2022-12-22T21:14:13.540Z,96.39
2022-12-22T21:16:42.423Z,96.21
2022-12-22T21:19:17.079Z,96.08
2022-12-22T21:21:45.131Z,96.12
2022-12-22T21:24:13.020Z,95.94
2022-12-22T21:26:43.002Z,95.71
2022-12-22T21:29:17.184Z,95.72
2022-12-22T21:31:45.173Z,95.79
2022-12-22T21:34:16.862Z,96.37
2022-12-22T21:36:49.121Z,96.01
2022-12-22T21:39:25.178Z,95.88
2022-12-22T21:42:03.364Z,95.81
2022-12-22T21:44:33.726Z,95.34
2022-12-22T21:47:02.631Z,96.24
2022-12-22T21:49:33.953Z,95.71
2022-12-22T21:52:02.273Z,95.93
2022-12-22T21:54:30.208Z,95.76
2022-12-22T21:56:58.151Z,96.24
2022-12-22T21:59:26.305Z,95.73
2022-12-22T22:01:54.434Z,96.15
2022-12-22T22:04:22.735Z,96.29
2022-12-22T22:06:51.999Z,95.88
2022-12-22T22:09:19.810Z,96.02
2022-12-22T22:12:05.060Z,95.70
2022-12-22T22:14:32.837Z,96.24
2022-12-22T22:17:00.672Z,95.86
2022-12-22T22:19:28.899Z,96.05
2022-12-22T22:21:58.095Z,95.90
2022-12-22T22:24:26.151Z,96.62
2022-12-22T22:26:55.871Z,96.49
2022-12-22T22:29:23.876Z,95.81
2022-12-22T22:31:51.793Z,96.95
2022-12-22T22:34:19.904Z,96.69
2022-12-22T22:36:48.188Z,96.59
2022-12-22T22:39:17.473Z,96.45
2022-12-22T22:41:45.475Z,96.91
2022-12-22T22:44:13.473Z,96.80
2022-12-22T22:46:41.674Z,96.45
2022-12-22T22:49:28.725Z,96.90
2022-12-22T22:51:57.138Z,96.33
2022-12-22T22:54:26.652Z,97.07
2022-12-22T22:56:54.660Z,96.88
2022-12-22T22:59:22.458Z,97.07
2022-12-22T23:01:50.249Z,97.00
2022-12-22T23:04:18.297Z,96.79
2022-12-22T23:06:46.195Z,96.76
2022-12-22T23:09:14.097Z,96.44
2022-12-22T23:11:43.262Z,96.71
2022-12-22T23:14:11.129Z,97.04
2022-12-22T23:16:39.214Z,97.27
2022-12-22T23:19:07.528Z,97.20
2022-12-22T23:21:35.701Z,96.72
2022-12-22T23:24:03.655Z,96.66
2022-12-22T23:26:31.510Z,96.31
2022-12-22T23:29:03.766Z,97.08
2022-12-22T23:31:32.314Z,97.05
2022-12-22T23:34:00.629Z,97.17
2022-12-22T23:36:28.451Z,96.70
2022-12-22T23:38:56.220Z,96.58
2022-12-22T23:41:24.245Z,96.21
2022-12-22T23:43:52.123Z,96.62
2022-12-22T23:46:21.445Z,96.48
2022-12-22T23:48:52.432Z,95.97
2022-12-22T23:51:21.573Z,97.15
2022-12-22T23:53:49.427Z,95.98
2022-12-22T23:56:17.632Z,96.71
2022-12-22T23:58:48.202Z,96.62
